createdAt,value
2018-06-17T00:03:17.744Z,65.34
2018-06-17T00:08:12.249Z,65.30
2018-06-17T00:13:06.792Z,66.52
2018-06-17T00:18:01.213Z,65.59
2018-06-17T00:22:55.667Z,66.12
2018-06-17T00:27:50.102Z,66.69
2018-06-17T00:32:44.509Z,67.09
2018-06-17T00:37:38.973Z,66.76
2018-06-17T00:42:33.402Z,67.25
2018-06-17T00:47:27.845Z,67.31
2018-06-17T00:52:22.283Z,67.65
2018-06-17T00:57:33.622Z,67.47
2018-06-17T01:02:28.140Z,67.84
2018-06-17T01:07:22.657Z,68.76
2018-06-17T01:12:17.160Z,69.45
2018-06-17T01:17:11.577Z,69.52
2018-06-17T01:22:06.137Z,69.14
2018-06-17T01:27:00.564Z,69.74
2018-06-17T01:31:54.991Z,70.76
2018-06-17T01:36:49.428Z,71.21
2018-06-17T01:41:43.839Z,71.33
2018-06-17T01:46:38.296Z,72.30
2018-06-17T01:51:32.749Z,72.02
2018-06-17T01:56:27.220Z,72.74
2018-06-17T02:01:21.678Z,72.46
2018-06-17T02:06:21.223Z,72.52
2018-06-17T02:11:20.873Z,72.66
2018-06-17T02:16:15.340Z,72.66
2018-06-17T02:21:09.819Z,72.54
2018-06-17T02:26:04.249Z,72.26
2018-06-17T02:30:58.788Z,71.31
2018-06-17T02:35:53.240Z,70.92
2018-06-17T02:40:47.682Z,69.94
2018-06-17T02:45:47.206Z,69.34
2018-06-17T02:50:46.817Z,68.90
2018-06-17T02:55:41.336Z,68.72
2018-06-17T03:00:35.790Z,68.24
2018-06-17T03:05:30.225Z,67.85
2018-06-17T03:10:24.700Z,67.90
2018-06-17T03:15:19.123Z,68.26
2018-06-17T03:20:13.536Z,68.86
2018-06-17T03:25:13.510Z,69.03
2018-06-17T03:30:13.082Z,68.46
2018-06-17T03:35:13.321Z,69.10
2018-06-17T03:40:07.765Z,68.53
2018-06-17T03:45:02.210Z,68.59
2018-06-17T03:49:56.618Z,68.06
2018-06-17T03:54:51.174Z,66.77
2018-06-17T03:59:45.613Z,64.78
2018-06-17T04:04:45.340Z,63.58
2018-06-17T04:09:39.728Z,62.63
2018-06-17T04:14:34.156Z,61.36
2018-06-17T04:19:28.285Z,60.56
2018-06-17T04:24:22.695Z,60.45
2018-06-17T04:29:17.091Z,60.54
2018-06-17T04:34:11.566Z,58.80
2018-06-17T04:39:08.404Z,57.95
2018-06-17T04:44:02.847Z,57.30
2018-06-17T04:48:57.246Z,57.22
2018-06-17T04:53:51.656Z,57.41
2018-06-17T04:58:46.060Z,55.06
2018-06-17T05:03:40.473Z,53.50
2018-06-17T05:08:34.953Z,51.54
2018-06-17T05:13:29.368Z,49.53
2018-06-17T05:18:23.784Z,47.56
2018-06-17T05:23:18.211Z,45.29
2018-06-17T05:28:12.705Z,42.75
2018-06-17T05:33:07.110Z,39.92
2018-06-17T05:38:01.621Z,38.20
2018-06-17T05:42:56.033Z,38.13
2018-06-17T05:47:50.432Z,41.73
2018-06-17T05:52:44.831Z,44.59
2018-06-17T05:57:39.406Z,47.74
2018-06-17T06:02:33.526Z,50.00
2018-06-17T06:07:28.017Z,49.44
2018-06-17T06:12:22.461Z,51.38
2018-06-17T06:17:16.899Z,52.25
2018-06-17T06:22:11.059Z,52.53
2018-06-17T06:27:05.621Z,53.34
2018-06-17T06:32:00.025Z,53.41
2018-06-17T06:36:54.476Z,50.38
2018-06-17T06:41:48.912Z,48.49
2018-06-17T06:46:43.448Z,48.13
2018-06-17T06:51:37.855Z,47.59
2018-06-17T06:56:32.281Z,47.88
2018-06-17T07:01:43.510Z,45.84
2018-06-17T07:06:54.960Z,44.28
2018-06-17T07:11:49.360Z,43.78
2018-06-17T07:17:00.514Z,45.27
2018-06-17T07:23:24.356Z,44.91
2018-06-17T07:30:27.419Z,43.40
2018-06-17T07:35:21.912Z,43.57
2018-06-17T07:40:54.981Z,44.26
2018-06-17T07:45:49.427Z,44.00
2018-06-17T07:51:00.581Z,44.97
2018-06-17T07:55:54.989Z,45.14
2018-06-17T08:00:49.422Z,44.12
2018-06-17T08:05:43.857Z,45.29
2018-06-17T08:10:38.257Z,45.03
2018-06-17T08:15:32.654Z,44.03
2018-06-17T08:20:27.065Z,43.25
2018-06-17T08:25:21.539Z,43.93
2018-06-17T08:30:16.196Z,43.34
2018-06-17T08:35:10.619Z,42.30
2018-06-17T08:40:05.049Z,40.51
2018-06-17T08:44:59.457Z,42.24
2018-06-17T08:49:53.857Z,41.74
2018-06-17T08:54:48.280Z,41.33
2018-06-17T08:59:42.827Z,41.31
2018-06-17T09:04:37.278Z,41.75
2018-06-17T09:09:31.707Z,42.77
2018-06-17T09:14:26.171Z,39.71
2018-06-17T09:19:20.624Z,39.93
2018-06-17T09:24:15.075Z,39.54
2018-06-17T09:29:09.511Z,40.17
2018-06-17T09:34:03.928Z,40.01
2018-06-17T09:38:58.730Z,40.29
2018-06-17T09:43:53.191Z,39.66
2018-06-17T09:48:47.330Z,39.62
2018-06-17T09:53:41.764Z,38.60
2018-06-17T09:58:36.413Z,38.29
2018-06-17T10:03:30.853Z,37.07
2018-06-17T10:08:25.279Z,38.71
2018-06-17T10:13:20.300Z,39.35
2018-06-17T10:18:15.825Z,38.03
2018-06-17T10:23:10.736Z,38.80
2018-06-17T10:28:05.884Z,37.41
2018-06-17T10:33:00.309Z,39.61
2018-06-17T10:37:54.727Z,40.44
2018-06-17T10:42:49.559Z,41.99
2018-06-17T10:47:44.794Z,39.90
2018-06-17T10:52:40.456Z,38.84
2018-06-17T10:57:34.988Z,38.77
2018-06-17T11:02:29.594Z,39.21
2018-06-17T11:07:24.092Z,35.64
2018-06-17T11:12:18.527Z,35.01
2018-06-17T11:17:13.043Z,33.69
2018-06-17T11:22:07.553Z,32.37
2018-06-17T11:27:01.973Z,36.40
2018-06-17T11:31:56.393Z,38.45
2018-06-17T11:36:50.845Z,39.31
2018-06-17T11:41:45.296Z,38.80
2018-06-17T11:46:39.808Z,35.00
2018-06-17T11:51:34.249Z,35.02
2018-06-17T11:56:28.674Z,33.92
2018-06-17T12:01:23.093Z,33.49
2018-06-17T12:06:17.531Z,33.57
2018-06-17T12:11:11.953Z,34.38
2018-06-17T12:16:06.397Z,34.30
2018-06-17T12:21:00.864Z,44.06
2018-06-17T12:25:55.301Z,49.39
2018-06-17T12:30:49.704Z,52.08
2018-06-17T12:35:44.160Z,52.31
2018-06-17T12:40:38.755Z,53.69
2018-06-17T12:45:33.142Z,55.02
2018-06-17T12:50:27.680Z,61.73
2018-06-17T12:55:22.096Z,62.35
2018-06-17T13:00:16.576Z,61.52
2018-06-17T13:05:11.056Z,60.18
2018-06-17T13:10:05.692Z,57.03
2018-06-17T13:15:00.177Z,56.48
2018-06-17T13:19:54.595Z,56.07
2018-06-17T13:24:49.040Z,53.48
2018-06-17T13:29:43.572Z,55.99
2018-06-17T13:34:37.987Z,56.30
2018-06-17T13:39:32.456Z,53.95
2018-06-17T13:44:26.973Z,53.20
2018-06-17T13:49:21.482Z,51.34
2018-06-17T13:54:15.901Z,50.32
2018-06-17T13:59:10.337Z,51.14
2018-06-17T14:04:04.818Z,50.97
2018-06-17T14:08:59.285Z,50.47
2018-06-17T14:13:53.708Z,53.71
2018-06-17T14:18:48.164Z,50.89
2018-06-17T14:23:42.760Z,50.43
2018-06-17T14:28:37.251Z,51.21
2018-06-17T14:33:31.639Z,50.39
2018-06-17T14:38:26.041Z,51.23
2018-06-17T14:43:25.431Z,54.27
2018-06-17T14:48:25.038Z,54.74
2018-06-17T14:53:19.611Z,55.78
2018-06-17T14:58:15.179Z,56.39
2018-06-17T15:03:09.714Z,54.38
2018-06-17T15:08:04.247Z,54.77
2018-06-17T15:12:58.859Z,53.69
2018-06-17T15:17:53.261Z,52.78
2018-06-17T15:22:47.780Z,54.43
2018-06-17T15:27:42.220Z,54.01
2018-06-17T15:32:41.434Z,53.41
2018-06-17T15:37:40.900Z,51.87
2018-06-17T15:42:35.378Z,52.08
2018-06-17T15:47:29.816Z,51.01
2018-06-17T15:52:24.246Z,49.59
2018-06-17T15:57:18.720Z,49.62
2018-06-17T16:02:13.251Z,50.14
2018-06-17T16:07:07.697Z,50.32
2018-06-17T16:17:05.929Z,48.86
2018-06-17T16:22:00.384Z,50.67
2018-06-17T16:26:54.848Z,52.14
2018-06-17T16:31:49.373Z,52.99
2018-06-17T16:36:43.816Z,53.23
2018-06-17T16:41:38.258Z,54.52
2018-06-17T16:46:32.778Z,53.25
2018-06-17T16:51:32.301Z,52.41
2018-06-17T16:56:31.869Z,55.80
2018-06-17T17:01:26.362Z,58.25
2018-06-17T17:06:20.787Z,61.56
2018-06-17T17:11:15.221Z,62.80
2018-06-17T17:16:10.037Z,65.40
2018-06-17T17:21:04.589Z,68.58
2018-06-17T17:25:59.520Z,69.72
2018-06-17T17:30:53.979Z,71.89
2018-06-17T17:35:53.595Z,73.42
2018-06-17T17:40:51.793Z,75.65
2018-06-17T17:45:51.257Z,76.86
2018-06-17T17:50:45.669Z,77.30
2018-06-17T17:55:40.085Z,78.28
2018-06-17T18:00:34.570Z,76.64
2018-06-17T18:05:29.001Z,75.93
2018-06-17T18:10:23.118Z,75.99
2018-06-17T18:15:17.549Z,75.77
2018-06-17T18:20:12.047Z,75.81
2018-06-17T18:25:12.400Z,75.95
2018-06-17T18:30:12.135Z,75.80
2018-06-17T18:35:11.873Z,75.49
2018-06-17T18:40:06.365Z,76.51
2018-06-17T18:45:00.830Z,75.31
2018-06-17T18:49:55.298Z,75.14
2018-06-17T18:54:49.762Z,75.74
2018-06-17T18:59:44.213Z,75.94
2018-06-17T19:04:39.167Z,77.16
2018-06-17T19:09:38.931Z,76.28
2018-06-17T19:14:38.457Z,76.12
2018-06-17T19:19:32.876Z,76.26
2018-06-17T19:24:27.280Z,76.62
2018-06-17T19:29:21.745Z,77.02
2018-06-17T19:34:16.178Z,78.34
2018-06-17T19:39:11.834Z,78.66
2018-06-17T19:44:06.432Z,79.97
2018-06-17T19:49:00.876Z,79.73
2018-06-17T19:54:00.521Z,78.93
2018-06-17T19:59:00.154Z,78.86
2018-06-17T20:03:54.562Z,79.23
2018-06-17T20:08:48.983Z,78.80
2018-06-17T20:13:43.447Z,77.05
2018-06-17T20:18:37.945Z,76.76
2018-06-17T20:23:32.361Z,76.62
2018-06-17T20:28:26.807Z,76.65
2018-06-17T20:33:26.391Z,77.40
2018-06-17T20:38:25.900Z,76.78
2018-06-17T20:43:25.395Z,74.98
2018-06-17T20:48:19.836Z,75.44
2018-06-17T20:53:14.236Z,76.93
2018-06-17T20:58:08.375Z,76.98
2018-06-17T21:03:02.781Z,78.28
2018-06-17T21:07:57.240Z,75.89
2018-06-17T21:12:51.698Z,76.85
2018-06-17T21:17:48.838Z,75.63
2018-06-17T21:22:48.322Z,75.68
2018-06-17T21:27:42.792Z,76.43
2018-06-17T21:32:37.837Z,77.07
2018-06-17T21:37:32.333Z,76.25
2018-06-17T21:42:26.773Z,76.87
2018-06-17T21:47:21.211Z,76.13
2018-06-17T21:52:15.628Z,76.26
2018-06-17T21:57:10.086Z,75.46
2018-06-17T22:02:04.588Z,76.39
2018-06-17T22:06:58.723Z,75.57
2018-06-17T22:11:58.140Z,76.34
2018-06-17T22:16:57.786Z,75.88
2018-06-17T22:21:52.272Z,76.50
2018-06-17T22:26:46.663Z,76.49
2018-06-17T22:31:41.151Z,76.22
2018-06-17T22:36:35.572Z,77.48
2018-06-17T22:41:29.988Z,77.53
2018-06-17T22:46:24.400Z,75.60
2018-06-17T22:51:18.855Z,75.42
2018-06-17T22:56:18.532Z,75.69
2018-06-17T23:01:18.136Z,75.67
2018-06-17T23:06:17.749Z,75.82
2018-06-17T23:11:12.180Z,76.84
2018-06-17T23:16:06.654Z,76.31
2018-06-17T23:21:01.058Z,76.67
2018-06-17T23:25:55.467Z,76.63
2018-06-17T23:30:49.897Z,77.12
2018-06-17T23:35:44.302Z,76.85
2018-06-17T23:40:38.728Z,76.97
2018-06-17T23:45:33.113Z,77.74
2018-06-17T23:50:32.749Z,78.39
2018-06-17T23:55:32.396Z,78.80
